Terminal Aerodrome Forecast
Issued by NWS San Angelo, TX

Home | Current Version | Previous Version | Text Only | Print | Product List | Glossary On
Versions: 1 2 3 4 5 6 7 8 9 10 11 12 13 14 15 16 17 18 19 20 21 22 23 24 25
836
FTUS44 KSJT 080042 AAA
TAFSJT
TAF AMD
KSJT 080042Z 0801/0824 03010KT P6SM OVC018
     FM080400 03014G20KT 5SM BR OVC012
     FM081800 03012G18KT P6SM OVC050=

USA.gov is the U.S. government's official web portal to all federal, state and local government web resources and services.